sensor_id;sensor_type;location;lat;lon;timestamp;P1;durP1;ratioP1;P2;durP2;ratioP2
25419;SDS011;13354;48.174;11.566;2023-09-18T00:00:47;4.63;;;3.58;;
25419;SDS011;13354;48.174;11.566;2023-09-18T00:03:16;5.78;;;4.00;;
25419;SDS011;13354;48.174;11.566;2023-09-18T00:05:43;4.63;;;3.70;;
25419;SDS011;13354;48.174;11.566;2023-09-18T00:08:10;4.82;;;3.30;;
25419;SDS011;13354;48.174;11.566;2023-09-18T00:10:36;4.25;;;3.85;;
25419;SDS011;13354;48.174;11.566;2023-09-18T00:13:01;4.75;;;3.33;;
25419;SDS011;13354;48.174;11.566;2023-09-18T00:15:27;5.75;;;3.60;;
25419;SDS011;13354;48.174;11.566;2023-09-18T00:17:53;5.68;;;3.72;;
25419;SDS011;13354;48.174;11.566;2023-09-18T00:20:18;4.25;;;3.85;;
25419;SDS011;13354;48.174;11.566;2023-09-18T00:22:44;5.75;;;3.90;;
25419;SDS011;13354;48.174;11.566;2023-09-18T00:25:10;5.15;;;3.50;;
25419;SDS011;13354;48.174;11.566;2023-09-18T00:27:35;4.10;;;3.80;;
25419;SDS011;13354;48.174;11.566;2023-09-18T00:30:01;3.58;;;3.28;;
25419;SDS011;13354;48.174;11.566;2023-09-18T00:32:28;5.45;;;3.50;;
25419;SDS011;13354;48.174;11.566;2023-09-18T00:34:53;5.50;;;2.88;;
25419;SDS011;13354;48.174;11.566;2023-09-18T00:37:19;3.53;;;3.00;;
25419;SDS011;13354;48.174;11.566;2023-09-18T00:39:44;3.50;;;3.20;;
25419;SDS011;13354;48.174;11.566;2023-09-18T00:42:09;4.18;;;3.10;;
25419;SDS011;13354;48.174;11.566;2023-09-18T00:44:38;4.60;;;3.28;;
25419;SDS011;13354;48.174;11.566;2023-09-18T00:47:06;3.90;;;3.28;;
25419;SDS011;13354;48.174;11.566;2023-09-18T00:49:32;6.88;;;3.33;;
25419;SDS011;13354;48.174;11.566;2023-09-18T00:51:59;4.82;;;3.40;;
25419;SDS011;13354;48.174;11.566;2023-09-18T00:54:24;4.72;;;3.38;;
25419;SDS011;13354;48.174;11.566;2023-09-18T00:56:50;5.57;;;2.95;;
25419;SDS011;13354;48.174;11.566;2023-09-18T00:59:19;4.78;;;3.15;;
25419;SDS011;13354;48.174;11.566;2023-09-18T01:01:45;5.70;;;3.45;;
25419;SDS011;13354;48.174;11.566;2023-09-18T01:04:13;3.65;;;3.20;;
25419;SDS011;13354;48.174;11.566;2023-09-18T01:06:38;4.55;;;3.00;;
25419;SDS011;13354;48.174;11.566;2023-09-18T01:09:04;5.75;;;3.35;;
25419;SDS011;13354;48.174;11.566;2023-09-18T01:11:41;5.00;;;3.40;;
25419;SDS011;13354;48.174;11.566;2023-09-18T01:16:56;6.55;;;3.17;;
25419;SDS011;13354;48.174;11.566;2023-09-18T01:19:44;4.88;;;2.90;;
25419;SDS011;13354;48.174;11.566;2023-09-18T01:22:12;4.18;;;3.50;;
25419;SDS011;13354;48.174;11.566;2023-09-18T01:24:39;5.45;;;3.00;;
25419;SDS011;13354;48.174;11.566;2023-09-18T01:27:07;4.93;;;3.03;;
25419;SDS011;13354;48.174;11.566;2023-09-18T01:29:34;3.65;;;2.67;;
25419;SDS011;13354;48.174;11.566;2023-09-18T01:32:00;3.88;;;2.80;;
25419;SDS011;13354;48.174;11.566;2023-09-18T01:34:26;4.32;;;3.05;;
25419;SDS011;13354;48.174;11.566;2023-09-18T01:36:56;5.18;;;3.08;;
25419;SDS011;13354;48.174;11.566;2023-09-18T01:39:22;3.67;;;2.83;;
25419;SDS011;13354;48.174;11.566;2023-09-18T01:41:49;4.75;;;3.00;;
25419;SDS011;13354;48.174;11.566;2023-09-18T01:44:15;3.85;;;2.83;;
25419;SDS011;13354;48.174;11.566;2023-09-18T01:46:40;4.47;;;2.92;;
25419;SDS011;13354;48.174;11.566;2023-09-18T01:49:07;6.03;;;2.63;;
25419;SDS011;13354;48.174;11.566;2023-09-18T01:51:32;4.95;;;3.00;;
25419;SDS011;13354;48.174;11.566;2023-09-18T01:53:57;6.20;;;2.73;;
25419;SDS011;13354;48.174;11.566;2023-09-18T01:56:23;4.80;;;2.65;;
25419;SDS011;13354;48.174;11.566;2023-09-18T01:58:49;5.20;;;2.85;;
25419;SDS011;13354;48.174;11.566;2023-09-18T02:01:14;3.65;;;3.17;;
25419;SDS011;13354;48.174;11.566;2023-09-18T02:03:39;5.20;;;2.83;;
25419;SDS011;13354;48.174;11.566;2023-09-18T02:06:09;2.95;;;2.50;;
25419;SDS011;13354;48.174;11.566;2023-09-18T02:08:35;3.58;;;2.70;;
25419;SDS011;13354;48.174;11.566;2023-09-18T02:11:00;2.92;;;2.60;;
25419;SDS011;13354;48.174;11.566;2023-09-18T02:13:26;3.67;;;2.60;;
25419;SDS011;13354;48.174;11.566;2023-09-18T02:15:51;4.03;;;2.72;;
25419;SDS011;13354;48.174;11.566;2023-09-18T02:18:17;4.72;;;2.72;;
25419;SDS011;13354;48.174;11.566;2023-09-18T02:20:42;3.28;;;2.70;;
25419;SDS011;13354;48.174;11.566;2023-09-18T02:23:12;3.80;;;2.70;;
25419;SDS011;13354;48.174;11.566;2023-09-18T02:25:37;5.13;;;2.60;;
25419;SDS011;13354;48.174;11.566;2023-09-18T02:28:03;3.90;;;2.60;;
25419;SDS011;13354;48.174;11.566;2023-09-18T02:30:29;5.07;;;3.00;;
25419;SDS011;13354;48.174;11.566;2023-09-18T02:32:54;3.38;;;2.63;;
25419;SDS011;13354;48.174;11.566;2023-09-18T02:35:20;3.60;;;2.80;;
25419;SDS011;13354;48.174;11.566;2023-09-18T02:37:45;4.90;;;2.87;;
25419;SDS011;13354;48.174;11.566;2023-09-18T02:40:11;4.32;;;2.80;;
25419;SDS011;13354;48.174;11.566;2023-09-18T02:42:36;6.20;;;2.90;;
25419;SDS011;13354;48.174;11.566;2023-09-18T02:45:01;4.63;;;2.90;;
25419;SDS011;13354;48.174;11.566;2023-09-18T02:47:27;3.58;;;2.72;;
25419;SDS011;13354;48.174;11.566;2023-09-18T02:49:52;3.30;;;2.47;;
25419;SDS011;13354;48.174;11.566;2023-09-18T02:52:18;5.60;;;3.33;;
25419;SDS011;13354;48.174;11.566;2023-09-18T02:54:43;2.63;;;2.43;;
25419;SDS011;13354;48.174;11.566;2023-09-18T02:57:08;5.00;;;2.93;;
25419;SDS011;13354;48.174;11.566;2023-09-18T02:59:33;3.72;;;2.70;;
25419;SDS011;13354;48.174;11.566;2023-09-18T03:01:59;3.80;;;2.63;;
25419;SDS011;13354;48.174;11.566;2023-09-18T03:04:24;4.28;;;2.80;;
25419;SDS011;13354;48.174;11.566;2023-09-18T03:06:49;4.07;;;2.72;;
25419;SDS011;13354;48.174;11.566;2023-09-18T03:09:15;4.80;;;2.60;;
25419;SDS011;13354;48.174;11.566;2023-09-18T03:11:41;4.38;;;3.13;;
25419;SDS011;13354;48.174;11.566;2023-09-18T03:14:07;4.35;;;3.25;;
25419;SDS011;13354;48.174;11.566;2023-09-18T03:16:32;6.83;;;2.63;;
25419;SDS011;13354;48.174;11.566;2023-09-18T03:18:58;4.13;;;3.05;;
25419;SDS011;13354;48.174;11.566;2023-09-18T03:21:23;5.00;;;3.00;;
25419;SDS011;13354;48.174;11.566;2023-09-18T03:23:49;3.45;;;2.90;;
25419;SDS011;13354;48.174;11.566;2023-09-18T03:26:15;5.00;;;2.85;;
25419;SDS011;13354;48.174;11.566;2023-09-18T03:28:40;3.35;;;2.60;;
25419;SDS011;13354;48.174;11.566;2023-09-18T03:31:05;6.83;;;3.10;;
25419;SDS011;13354;48.174;11.566;2023-09-18T03:33:31;5.50;;;2.78;;
25419;SDS011;13354;48.174;11.566;2023-09-18T03:35:57;3.83;;;2.83;;
25419;SDS011;13354;48.174;11.566;2023-09-18T03:38:23;4.75;;;2.60;;
25419;SDS011;13354;48.174;11.566;2023-09-18T03:40:49;3.17;;;2.88;;
25419;SDS011;13354;48.174;11.566;2023-09-18T03:43:15;4.88;;;2.72;;
25419;SDS011;13354;48.174;11.566;2023-09-18T03:45:40;4.45;;;2.75;;
25419;SDS011;13354;48.174;11.566;2023-09-18T03:48:06;3.40;;;2.30;;
25419;SDS011;13354;48.174;11.566;2023-09-18T03:50:31;4.78;;;2.90;;
25419;SDS011;13354;48.174;11.566;2023-09-18T03:52:57;4.28;;;3.00;;
25419;SDS011;13354;48.174;11.566;2023-09-18T03:55:22;4.30;;;2.70;;
25419;SDS011;13354;48.174;11.566;2023-09-18T03:57:48;4.82;;;2.90;;
25419;SDS011;13354;48.174;11.566;2023-09-18T04:00:13;5.43;;;2.65;;
25419;SDS011;13354;48.174;11.566;2023-09-18T04:02:39;7.07;;;2.90;;
25419;SDS011;13354;48.174;11.566;2023-09-18T04:05:04;3.72;;;2.88;;
25419;SDS011;13354;48.174;11.566;2023-09-18T04:07:30;4.53;;;3.08;;
25419;SDS011;13354;48.174;11.566;2023-09-18T04:09:56;3.63;;;2.65;;
25419;SDS011;13354;48.174;11.566;2023-09-18T04:12:22;3.88;;;2.63;;
25419;SDS011;13354;48.174;11.566;2023-09-18T04:14:47;4.18;;;2.72;;
25419;SDS011;13354;48.174;11.566;2023-09-18T04:17:12;3.97;;;2.95;;
25419;SDS011;13354;48.174;11.566;2023-09-18T04:19:38;3.97;;;2.95;;
25419;SDS011;13354;48.174;11.566;2023-09-18T04:22:03;5.55;;;3.17;;
25419;SDS011;13354;48.174;11.566;2023-09-18T04:24:29;8.13;;;3.20;;
25419;SDS011;13354;48.174;11.566;2023-09-18T04:26:54;5.38;;;2.83;;
25419;SDS011;13354;48.174;11.566;2023-09-18T04:29:20;10.63;;;3.22;;
25419;SDS011;13354;48.174;11.566;2023-09-18T04:31:45;5.57;;;3.65;;
25419;SDS011;13354;48.174;11.566;2023-09-18T04:34:10;6.10;;;3.63;;
25419;SDS011;13354;48.174;11.566;2023-09-18T04:36:36;5.50;;;3.33;;
25419;SDS011;13354;48.174;11.566;2023-09-18T04:39:02;4.53;;;3.20;;
25419;SDS011;13354;48.174;11.566;2023-09-18T04:41:29;4.13;;;3.05;;
25419;SDS011;13354;48.174;11.566;2023-09-18T04:43:55;4.15;;;3.38;;
25419;SDS011;13354;48.174;11.566;2023-09-18T04:46:20;7.77;;;3.03;;
25419;SDS011;13354;48.174;11.566;2023-09-18T04:48:46;5.07;;;3.13;;
25419;SDS011;13354;48.174;11.566;2023-09-18T04:51:12;7.88;;;3.30;;
25419;SDS011;13354;48.174;11.566;2023-09-18T04:53:37;4.88;;;2.70;;
25419;SDS011;13354;48.174;11.566;2023-09-18T04:56:03;4.25;;;3.00;;
25419;SDS011;13354;48.174;11.566;2023-09-18T04:58:28;5.93;;;3.60;;
25419;SDS011;13354;48.174;11.566;2023-09-18T05:00:57;6.07;;;4.10;;
25419;SDS011;13354;48.174;11.566;2023-09-18T05:03:24;5.32;;;3.67;;
25419;SDS011;13354;48.174;11.566;2023-09-18T05:05:49;7.30;;;3.60;;
25419;SDS011;13354;48.174;11.566;2023-09-18T05:08:15;6.75;;;3.88;;
25419;SDS011;13354;48.174;11.566;2023-09-18T05:10:41;7.72;;;3.30;;
25419;SDS011;13354;48.174;11.566;2023-09-18T05:13:07;6.63;;;3.92;;
25419;SDS011;13354;48.174;11.566;2023-09-18T05:15:33;7.53;;;3.50;;
25419;SDS011;13354;48.174;11.566;2023-09-18T05:17:59;7.13;;;3.58;;
25419;SDS011;13354;48.174;11.566;2023-09-18T05:20:25;7.07;;;3.45;;
25419;SDS011;13354;48.174;11.566;2023-09-18T05:22:53;6.63;;;3.55;;
25419;SDS011;13354;48.174;11.566;2023-09-18T05:25:19;6.03;;;3.58;;
25419;SDS011;13354;48.174;11.566;2023-09-18T05:27:46;5.78;;;3.55;;
25419;SDS011;13354;48.174;11.566;2023-09-18T05:30:17;5.47;;;3.53;;
25419;SDS011;13354;48.174;11.566;2023-09-18T05:32:46;5.67;;;2.83;;
25419;SDS011;13354;48.174;11.566;2023-09-18T05:35:13;4.88;;;3.35;;
25419;SDS011;13354;48.174;11.566;2023-09-18T05:37:39;5.45;;;3.72;;
25419;SDS011;13354;48.174;11.566;2023-09-18T05:40:05;7.07;;;3.45;;
25419;SDS011;13354;48.174;11.566;2023-09-18T05:42:34;7.90;;;3.60;;
25419;SDS011;13354;48.174;11.566;2023-09-18T05:45:00;5.45;;;3.63;;
25419;SDS011;13354;48.174;11.566;2023-09-18T05:47:25;11.23;;;4.00;;
25419;SDS011;13354;48.174;11.566;2023-09-18T05:49:51;5.82;;;3.35;;
25419;SDS011;13354;48.174;11.566;2023-09-18T05:52:16;5.67;;;3.70;;
25419;SDS011;13354;48.174;11.566;2023-09-18T05:54:42;8.15;;;3.97;;
25419;SDS011;13354;48.174;11.566;2023-09-18T05:57:07;5.65;;;3.50;;
25419;SDS011;13354;48.174;11.566;2023-09-18T05:59:32;7.15;;;4.20;;
25419;SDS011;13354;48.174;11.566;2023-09-18T06:01:58;10.70;;;3.90;;
25419;SDS011;13354;48.174;11.566;2023-09-18T06:04:23;12.20;;;3.75;;
25419;SDS011;13354;48.174;11.566;2023-09-18T06:06:49;7.78;;;3.67;;
25419;SDS011;13354;48.174;11.566;2023-09-18T06:09:14;7.95;;;3.65;;
25419;SDS011;13354;48.174;11.566;2023-09-18T06:11:39;8.63;;;4.25;;
25419;SDS011;13354;48.174;11.566;2023-09-18T06:14:05;9.07;;;3.88;;
25419;SDS011;13354;48.174;11.566;2023-09-18T06:16:30;7.00;;;4.30;;
25419;SDS011;13354;48.174;11.566;2023-09-18T06:18:56;8.73;;;4.40;;
25419;SDS011;13354;48.174;11.566;2023-09-18T06:21:21;11.25;;;4.50;;
25419;SDS011;13354;48.174;11.566;2023-09-18T06:23:46;9.88;;;5.93;;
25419;SDS011;13354;48.174;11.566;2023-09-18T06:26:12;10.48;;;4.65;;
25419;SDS011;13354;48.174;11.566;2023-09-18T06:28:39;11.45;;;4.55;;
25419;SDS011;13354;48.174;11.566;2023-09-18T06:31:04;10.23;;;3.83;;
25419;SDS011;13354;48.174;11.566;2023-09-18T06:33:29;6.90;;;3.78;;
25419;SDS011;13354;48.174;11.566;2023-09-18T06:35:55;15.07;;;3.95;;
25419;SDS011;13354;48.174;11.566;2023-09-18T06:38:20;10.85;;;4.03;;
25419;SDS011;13354;48.174;11.566;2023-09-18T06:40:46;9.10;;;3.40;;
25419;SDS011;13354;48.174;11.566;2023-09-18T06:43:12;8.18;;;3.65;;
25419;SDS011;13354;48.174;11.566;2023-09-18T06:45:37;10.60;;;3.97;;
25419;SDS011;13354;48.174;11.566;2023-09-18T06:48:04;10.15;;;3.60;;
25419;SDS011;13354;48.174;11.566;2023-09-18T06:50:30;10.05;;;3.88;;
25419;SDS011;13354;48.174;11.566;2023-09-18T06:52:55;10.20;;;4.20;;
25419;SDS011;13354;48.174;11.566;2023-09-18T06:55:21;9.65;;;3.75;;
25419;SDS011;13354;48.174;11.566;2023-09-18T06:57:47;10.25;;;3.92;;
25419;SDS011;13354;48.174;11.566;2023-09-18T07:00:13;5.38;;;3.38;;
25419;SDS011;13354;48.174;11.566;2023-09-18T07:02:45;8.38;;;3.80;;
25419;SDS011;13354;48.174;11.566;2023-09-18T07:05:10;12.20;;;4.13;;
25419;SDS011;13354;48.174;11.566;2023-09-18T07:07:36;10.05;;;6.45;;
25419;SDS011;13354;48.174;11.566;2023-09-18T07:10:01;8.10;;;3.90;;
25419;SDS011;13354;48.174;11.566;2023-09-18T07:12:27;8.60;;;4.30;;
25419;SDS011;13354;48.174;11.566;2023-09-18T07:14:53;9.82;;;4.03;;
25419;SDS011;13354;48.174;11.566;2023-09-18T07:17:18;16.45;;;11.82;;
25419;SDS011;13354;48.174;11.566;2023-09-18T07:19:43;12.82;;;5.13;;
25419;SDS011;13354;48.174;11.566;2023-09-18T07:22:09;9.15;;;3.63;;
25419;SDS011;13354;48.174;11.566;2023-09-18T07:24:34;12.20;;;4.40;;
25419;SDS011;13354;48.174;11.566;2023-09-18T07:26:59;8.57;;;4.90;;
25419;SDS011;13354;48.174;11.566;2023-09-18T07:29:25;8.50;;;4.25;;
25419;SDS011;13354;48.174;11.566;2023-09-18T07:31:50;7.05;;;3.72;;
25419;SDS011;13354;48.174;11.566;2023-09-18T07:34:16;8.10;;;3.50;;
25419;SDS011;13354;48.174;11.566;2023-09-18T07:36:42;6.63;;;3.90;;
25419;SDS011;13354;48.174;11.566;2023-09-18T07:39:08;7.65;;;3.83;;
25419;SDS011;13354;48.174;11.566;2023-09-18T07:41:34;8.45;;;3.78;;
25419;SDS011;13354;48.174;11.566;2023-09-18T07:43:59;7.43;;;3.80;;
25419;SDS011;13354;48.174;11.566;2023-09-18T07:46:25;9.90;;;4.50;;
25419;SDS011;13354;48.174;11.566;2023-09-18T07:48:50;5.95;;;3.92;;
25419;SDS011;13354;48.174;11.566;2023-09-18T07:51:15;7.15;;;4.15;;
25419;SDS011;13354;48.174;11.566;2023-09-18T07:53:41;6.88;;;3.67;;
25419;SDS011;13354;48.174;11.566;2023-09-18T07:56:07;7.80;;;4.13;;
25419;SDS011;13354;48.174;11.566;2023-09-18T07:58:32;9.02;;;3.92;;
25419;SDS011;13354;48.174;11.566;2023-09-18T08:00:58;8.43;;;3.75;;
25419;SDS011;13354;48.174;11.566;2023-09-18T08:03:24;5.22;;;3.88;;
25419;SDS011;13354;48.174;11.566;2023-09-18T08:05:51;4.63;;;3.47;;
25419;SDS011;13354;48.174;11.566;2023-09-18T08:08:18;7.65;;;3.70;;
25419;SDS011;13354;48.174;11.566;2023-09-18T08:10:45;7.65;;;4.65;;
25419;SDS011;13354;48.174;11.566;2023-09-18T08:13:13;7.95;;;6.10;;
25419;SDS011;13354;48.174;11.566;2023-09-18T08:15:39;5.68;;;4.03;;
25419;SDS011;13354;48.174;11.566;2023-09-18T08:18:04;9.02;;;3.95;;
25419;SDS011;13354;48.174;11.566;2023-09-18T08:20:29;5.95;;;3.60;;
25419;SDS011;13354;48.174;11.566;2023-09-18T08:22:55;10.57;;;7.07;;
25419;SDS011;13354;48.174;11.566;2023-09-18T08:25:21;12.60;;;6.22;;
25419;SDS011;13354;48.174;11.566;2023-09-18T08:27:46;8.70;;;4.10;;
25419;SDS011;13354;48.174;11.566;2023-09-18T08:30:13;6.97;;;3.60;;
25419;SDS011;13354;48.174;11.566;2023-09-18T08:32:39;5.72;;;3.88;;
25419;SDS011;13354;48.174;11.566;2023-09-18T08:35:05;8.60;;;4.15;;
25419;SDS011;13354;48.174;11.566;2023-09-18T08:37:32;11.07;;;3.70;;
25419;SDS011;13354;48.174;11.566;2023-09-18T08:39:57;5.55;;;3.60;;
25419;SDS011;13354;48.174;11.566;2023-09-18T08:42:25;9.25;;;4.25;;
25419;SDS011;13354;48.174;11.566;2023-09-18T08:44:55;10.07;;;3.90;;
25419;SDS011;13354;48.174;11.566;2023-09-18T08:47:23;8.88;;;3.88;;
25419;SDS011;13354;48.174;11.566;2023-09-18T08:49:49;5.70;;;4.10;;
25419;SDS011;13354;48.174;11.566;2023-09-18T08:52:15;8.07;;;4.03;;
25419;SDS011;13354;48.174;11.566;2023-09-18T08:54:42;8.13;;;4.22;;
25419;SDS011;13354;48.174;11.566;2023-09-18T08:57:09;7.40;;;4.10;;
25419;SDS011;13354;48.174;11.566;2023-09-18T08:59:35;7.53;;;4.18;;
25419;SDS011;13354;48.174;11.566;2023-09-18T09:02:03;8.25;;;4.10;;
25419;SDS011;13354;48.174;11.566;2023-09-18T09:04:28;6.40;;;4.25;;
25419;SDS011;13354;48.174;11.566;2023-09-18T09:06:54;8.02;;;4.60;;
25419;SDS011;13354;48.174;11.566;2023-09-18T09:09:22;7.90;;;4.20;;
25419;SDS011;13354;48.174;11.566;2023-09-18T09:11:49;9.52;;;4.28;;
25419;SDS011;13354;48.174;11.566;2023-09-18T09:14:15;8.25;;;4.35;;
25419;SDS011;13354;48.174;11.566;2023-09-18T09:16:46;11.20;;;4.03;;
25419;SDS011;13354;48.174;11.566;2023-09-18T09:19:16;8.18;;;3.83;;
25419;SDS011;13354;48.174;11.566;2023-09-18T09:21:42;7.80;;;3.95;;
25419;SDS011;13354;48.174;11.566;2023-09-18T09:24:09;7.25;;;3.70;;
25419;SDS011;13354;48.174;11.566;2023-09-18T09:26:39;10.50;;;4.28;;
25419;SDS011;13354;48.174;11.566;2023-09-18T09:29:19;9.38;;;4.28;;
25419;SDS011;13354;48.174;11.566;2023-09-18T09:31:45;5.78;;;3.80;;
25419;SDS011;13354;48.174;11.566;2023-09-18T09:34:12;13.98;;;4.40;;
25419;SDS011;13354;48.174;11.566;2023-09-18T09:36:58;9.93;;;3.85;;
25419;SDS011;13354;48.174;11.566;2023-09-18T09:39:26;8.77;;;3.97;;
25419;SDS011;13354;48.174;11.566;2023-09-18T09:41:54;10.18;;;3.80;;
25419;SDS011;13354;48.174;11.566;2023-09-18T09:44:19;7.45;;;3.80;;
25419;SDS011;13354;48.174;11.566;2023-09-18T09:46:48;5.63;;;3.72;;
25419;SDS011;13354;48.174;11.566;2023-09-18T09:49:16;11.48;;;3.90;;
25419;SDS011;13354;48.174;11.566;2023-09-18T09:51:42;5.85;;;3.55;;
25419;SDS011;13354;48.174;11.566;2023-09-18T09:54:08;11.25;;;3.63;;
25419;SDS011;13354;48.174;11.566;2023-09-18T09:56:43;9.50;;;3.53;;
25419;SDS011;13354;48.174;11.566;2023-09-18T09:59:14;10.32;;;3.85;;
25419;SDS011;13354;48.174;11.566;2023-09-18T10:01:40;11.27;;;3.72;;
25419;SDS011;13354;48.174;11.566;2023-09-18T10:04:09;7.85;;;3.40;;
25419;SDS011;13354;48.174;11.566;2023-09-18T10:06:43;9.32;;;3.83;;
25419;SDS011;13354;48.174;11.566;2023-09-18T10:09:09;11.77;;;3.60;;
25419;SDS011;13354;48.174;11.566;2023-09-18T10:11:38;20.65;;;12.00;;
25419;SDS011;13354;48.174;11.566;2023-09-18T10:14:12;9.50;;;4.10;;
25419;SDS011;13354;48.174;11.566;2023-09-18T10:16:41;11.25;;;3.70;;
25419;SDS011;13354;48.174;11.566;2023-09-18T10:19:20;9.63;;;3.20;;
25419;SDS011;13354;48.174;11.566;2023-09-18T10:24:51;11.05;;;3.20;;
25419;SDS011;13354;48.174;11.566;2023-09-18T10:27:22;14.32;;;3.33;;
25419;SDS011;13354;48.174;11.566;2023-09-18T10:29:51;14.30;;;3.30;;
25419;SDS011;13354;48.174;11.566;2023-09-18T10:32:19;10.77;;;4.00;;
25419;SDS011;13354;48.174;11.566;2023-09-18T10:34:46;8.85;;;2.70;;
25419;SDS011;13354;48.174;11.566;2023-09-18T10:37:13;8.82;;;3.00;;
25419;SDS011;13354;48.174;11.566;2023-09-18T10:39:40;10.10;;;3.25;;
25419;SDS011;13354;48.174;11.566;2023-09-18T10:42:07;9.48;;;2.83;;
25419;SDS011;13354;48.174;11.566;2023-09-18T10:44:34;10.55;;;2.97;;
25419;SDS011;13354;48.174;11.566;2023-09-18T10:47:00;12.63;;;2.97;;
25419;SDS011;13354;48.174;11.566;2023-09-18T10:49:30;9.70;;;3.10;;
25419;SDS011;13354;48.174;11.566;2023-09-18T10:51:56;10.32;;;2.38;;
25419;SDS011;13354;48.174;11.566;2023-09-18T10:54:23;14.45;;;3.00;;
25419;SDS011;13354;48.174;11.566;2023-09-18T10:56:49;14.63;;;3.33;;
25419;SDS011;13354;48.174;11.566;2023-09-18T10:59:15;11.23;;;2.85;;
25419;SDS011;13354;48.174;11.566;2023-09-18T11:01:42;11.55;;;3.20;;
25419;SDS011;13354;48.174;11.566;2023-09-18T11:04:08;10.00;;;3.28;;
25419;SDS011;13354;48.174;11.566;2023-09-18T11:09:28;13.07;;;2.80;;
25419;SDS011;13354;48.174;11.566;2023-09-18T11:14:29;15.15;;;3.30;;
25419;SDS011;13354;48.174;11.566;2023-09-18T11:17:27;14.25;;;3.05;;
25419;SDS011;13354;48.174;11.566;2023-09-18T11:20:06;13.70;;;3.30;;
25419;SDS011;13354;48.174;11.566;2023-09-18T11:25:28;10.27;;;2.92;;
25419;SDS011;13354;48.174;11.566;2023-09-18T11:28:00;18.48;;;2.80;;
25419;SDS011;13354;48.174;11.566;2023-09-18T11:30:27;7.57;;;2.72;;
25419;SDS011;13354;48.174;11.566;2023-09-18T11:32:54;8.18;;;2.10;;
25419;SDS011;13354;48.174;11.566;2023-09-18T11:35:20;16.02;;;3.13;;
25419;SDS011;13354;48.174;11.566;2023-09-18T11:37:46;11.25;;;2.58;;
25419;SDS011;13354;48.174;11.566;2023-09-18T11:40:28;11.25;;;2.22;;
25419;SDS011;13354;48.174;11.566;2023-09-18T11:43:18;7.88;;;2.20;;
25419;SDS011;13354;48.174;11.566;2023-09-18T11:45:43;7.97;;;2.05;;
25419;SDS011;13354;48.174;11.566;2023-09-18T11:48:12;10.18;;;2.33;;
25419;SDS011;13354;48.174;11.566;2023-09-18T11:50:40;11.68;;;2.05;;
25419;SDS011;13354;48.174;11.566;2023-09-18T11:53:06;7.93;;;2.10;;
25419;SDS011;13354;48.174;11.566;2023-09-18T11:55:32;5.80;;;1.60;;
25419;SDS011;13354;48.174;11.566;2023-09-18T11:57:58;6.90;;;1.60;;
25419;SDS011;13354;48.174;11.566;2023-09-18T12:00:26;8.80;;;2.03;;
25419;SDS011;13354;48.174;11.566;2023-09-18T12:02:53;9.07;;;1.85;;
25419;SDS011;13354;48.174;11.566;2023-09-18T12:05:20;6.95;;;1.75;;
25419;SDS011;13354;48.174;11.566;2023-09-18T12:07:46;7.50;;;1.90;;
25419;SDS011;13354;48.174;11.566;2023-09-18T12:10:15;5.55;;;1.77;;
25419;SDS011;13354;48.174;11.566;2023-09-18T12:12:45;7.13;;;1.60;;
25419;SDS011;13354;48.174;11.566;2023-09-18T12:15:11;7.72;;;1.42;;
25419;SDS011;13354;48.174;11.566;2023-09-18T12:17:37;5.93;;;1.52;;
25419;SDS011;13354;48.174;11.566;2023-09-18T12:20:03;4.97;;;1.42;;
25419;SDS011;13354;48.174;11.566;2023-09-18T12:22:30;3.92;;;1.23;;
25419;SDS011;13354;48.174;11.566;2023-09-18T12:25:14;4.03;;;1.30;;
25419;SDS011;13354;48.174;11.566;2023-09-18T12:27:41;5.53;;;1.50;;
25419;SDS011;13354;48.174;11.566;2023-09-18T12:30:07;3.95;;;1.30;;
25419;SDS011;13354;48.174;11.566;2023-09-18T12:32:35;2.85;;;1.20;;
25419;SDS011;13354;48.174;11.566;2023-09-18T12:35:02;5.07;;;1.55;;
25419;SDS011;13354;48.174;11.566;2023-09-18T12:37:31;3.53;;;1.50;;
25419;SDS011;13354;48.174;11.566;2023-09-18T12:39:56;5.45;;;1.85;;
25419;SDS011;13354;48.174;11.566;2023-09-18T12:42:21;5.15;;;1.55;;
25419;SDS011;13354;48.174;11.566;2023-09-18T12:44:47;6.85;;;1.83;;
25419;SDS011;13354;48.174;11.566;2023-09-18T12:47:14;4.50;;;1.33;;
25419;SDS011;13354;48.174;11.566;2023-09-18T12:49:39;5.97;;;1.65;;
25419;SDS011;13354;48.174;11.566;2023-09-18T12:52:05;6.38;;;1.55;;
25419;SDS011;13354;48.174;11.566;2023-09-18T12:54:37;5.45;;;1.60;;
25419;SDS011;13354;48.174;11.566;2023-09-18T12:57:04;11.15;;;1.90;;
25419;SDS011;13354;48.174;11.566;2023-09-18T12:59:31;4.53;;;1.67;;
25419;SDS011;13354;48.174;11.566;2023-09-18T13:01:58;6.22;;;1.60;;
25419;SDS011;13354;48.174;11.566;2023-09-18T13:04:24;5.70;;;1.60;;
25419;SDS011;13354;48.174;11.566;2023-09-18T13:10:02;4.07;;;1.52;;
25419;SDS011;13354;48.174;11.566;2023-09-18T13:15:10;5.68;;;1.73;;
25419;SDS011;13354;48.174;11.566;2023-09-18T13:20:09;4.45;;;1.63;;
25419;SDS011;13354;48.174;11.566;2023-09-18T13:22:36;5.03;;;2.00;;
25419;SDS011;13354;48.174;11.566;2023-09-18T13:25:02;4.80;;;1.65;;
25419;SDS011;13354;48.174;11.566;2023-09-18T13:27:27;3.83;;;1.80;;
25419;SDS011;13354;48.174;11.566;2023-09-18T13:29:53;6.00;;;2.30;;
25419;SDS011;13354;48.174;11.566;2023-09-18T13:32:20;3.60;;;1.50;;
25419;SDS011;13354;48.174;11.566;2023-09-18T13:34:46;4.90;;;1.92;;
25419;SDS011;13354;48.174;11.566;2023-09-18T13:37:12;5.70;;;1.70;;
25419;SDS011;13354;48.174;11.566;2023-09-18T13:39:38;7.15;;;2.50;;
25419;SDS011;13354;48.174;11.566;2023-09-18T13:42:04;4.97;;;1.67;;
25419;SDS011;13354;48.174;11.566;2023-09-18T13:44:29;5.47;;;2.75;;
25419;SDS011;13354;48.174;11.566;2023-09-18T13:46:55;11.20;;;7.22;;
25419;SDS011;13354;48.174;11.566;2023-09-18T13:49:21;5.22;;;2.10;;
25419;SDS011;13354;48.174;11.566;2023-09-18T13:51:47;5.57;;;2.17;;
25419;SDS011;13354;48.174;11.566;2023-09-18T13:54:15;7.80;;;2.10;;
25419;SDS011;13354;48.174;11.566;2023-09-18T13:56:41;6.28;;;3.03;;
25419;SDS011;13354;48.174;11.566;2023-09-18T13:59:08;3.78;;;1.67;;
25419;SDS011;13354;48.174;11.566;2023-09-18T14:01:35;5.70;;;2.63;;
25419;SDS011;13354;48.174;11.566;2023-09-18T14:04:00;8.77;;;3.90;;
25419;SDS011;13354;48.174;11.566;2023-09-18T14:06:25;6.90;;;3.63;;
25419;SDS011;13354;48.174;11.566;2023-09-18T14:08:51;3.90;;;1.70;;
25419;SDS011;13354;48.174;11.566;2023-09-18T14:11:16;5.25;;;1.90;;
25419;SDS011;13354;48.174;11.566;2023-09-18T14:13:43;1.48;;;1.30;;
25419;SDS011;13354;48.174;11.566;2023-09-18T14:16:08;4.57;;;1.60;;
25419;SDS011;13354;48.174;11.566;2023-09-18T14:18:35;6.38;;;1.33;;
25419;SDS011;13354;48.174;11.566;2023-09-18T14:21:01;4.28;;;1.20;;
25419;SDS011;13354;48.174;11.566;2023-09-18T14:23:26;2.47;;;1.40;;
25419;SDS011;13354;48.174;11.566;2023-09-18T14:25:52;6.03;;;3.03;;
25419;SDS011;13354;48.174;11.566;2023-09-18T14:28:17;4.85;;;1.65;;
25419;SDS011;13354;48.174;11.566;2023-09-18T14:30:42;2.90;;;1.20;;
25419;SDS011;13354;48.174;11.566;2023-09-18T14:33:08;3.13;;;1.25;;
25419;SDS011;13354;48.174;11.566;2023-09-18T14:35:33;4.88;;;1.20;;
25419;SDS011;13354;48.174;11.566;2023-09-18T14:38:01;4.05;;;1.80;;
25419;SDS011;13354;48.174;11.566;2023-09-18T14:40:29;5.65;;;2.30;;
25419;SDS011;13354;48.174;11.566;2023-09-18T14:42:54;4.13;;;1.88;;
25419;SDS011;13354;48.174;11.566;2023-09-18T14:45:19;3.13;;;1.50;;
25419;SDS011;13354;48.174;11.566;2023-09-18T14:47:44;3.38;;;1.50;;
25419;SDS011;13354;48.174;11.566;2023-09-18T14:50:10;4.05;;;1.50;;
25419;SDS011;13354;48.174;11.566;2023-09-18T14:52:35;5.22;;;1.80;;